LPOV Airport Information

Runway Information
Runway 18 Length 8005 ft width 148 ft
Elevation 44 ft Threshold 0 ft Heading 176
Runway 36 Length 8005 ft Width 148 ft
Elevation 56 ft Threshold 0 ft Heading 356
Airport Frequencies
Type APP Name APP Frequency 118.6 MHZ
Type TWR Name TWR Frequency 122.1 MHZ
Airport Navaids
Type TACAN Name Ovar Frequency 110600 KHZ
Airport Weather Information & NOTAM
ADDS - METARS form results

(1920 UTC 25 June 2018)
 
METAR text: LPOV 251900Z 34007KT 310V010 9999 FEW008 SCT012 BKN024 18/16 Q1018
Conditions at: LPOV (OVAR MIL , PT) observed 1900 UTC 25 June 2018
Temperature: 18.0°C (64°F)
Dewpoint: 16.0°C (61°F) [RH = 88%]
Pressure (altimeter): 30.06 inches Hg (1018.0 mb)
Winds: from the NNW (340 degrees) at 8 MPH (7 knots; 3.6 m/s)
Visibility: 6 or more miles (10+ km)
Ceiling: 2400 feet AGL
Clouds: few clouds at 800 feet AGL
scattered clouds at 1200 feet AGL
broken clouds at 2400 feet AGL
Weather: no significant weather observed at this time